Time;durP1;ratioP1;P1;durP2;ratioP2;P2;SDS_P1;SDS_P2;PMS_P1;PMS_P2;Temp;Humidity;BMP_temperature;BMP_pressure;BME280_temperature;BME280_humidity;BME280_pressure;Samples;Min_cycle;Max_cycle;Signal;HPM_P1;HPM_P2
2023/07/10 00:00:41;;;;;;;6.90;4.18;;;22.90;99.90;;;;;;4999431;28;20140;-74
2023/07/10 00:03:30;;;;;;;6.30;3.90;;;22.90;99.90;;;;;;5011564;28;20044;-74
2023/07/10 00:06:16;;;;;;;6.88;3.92;;;22.90;99.90;;;;;;4992911;28;20524;-74
2023/07/10 00:09:02;;;;;;;7.68;4.32;;;23.00;99.90;;;;;;5002631;28;20049;-75
2023/07/10 00:11:48;;;;;;;7.30;4.07;;;22.90;99.90;;;;;;5016862;28;20099;-74
2023/07/10 00:14:34;;;;;;;5.40;3.65;;;22.90;99.90;;;;;;4998770;28;20041;-74
2023/07/10 00:17:20;;;;;;;9.48;4.70;;;22.80;99.90;;;;;;5015802;28;20046;-74
2023/07/10 00:20:24;;;;;;;12.60;4.30;;;22.80;99.90;;;;;;5015265;28;20045;-74
2023/07/10 00:23:10;;;;;;;7.68;4.05;;;22.80;99.90;;;;;;5022060;28;20041;-74
2023/07/10 00:25:56;;;;;;;10.23;4.43;;;22.80;99.90;;;;;;5026736;28;20381;-75
2023/07/10 00:28:42;;;;;;;9.13;4.53;;;22.80;99.90;;;;;;5002668;28;20045;-74
2023/07/10 00:31:28;;;;;;;7.05;4.22;;;22.70;99.90;;;;;;5004872;28;20034;-74
2023/07/10 00:34:15;;;;;;;7.30;3.97;;;22.60;99.90;;;;;;4985544;28;20046;-74
2023/07/10 00:37:00;;;;;;;9.05;4.55;;;22.60;99.90;;;;;;4993677;28;20067;-74
2023/07/10 00:39:46;;;;;;;6.40;4.28;;;22.60;99.90;;;;;;4981459;28;20041;-74
2023/07/10 00:42:32;;;;;;;7.47;3.65;;;22.60;99.90;;;;;;5002006;28;20464;-74
2023/07/10 00:45:18;;;;;;;9.80;4.88;;;22.60;99.90;;;;;;5007897;28;20042;-74
2023/07/10 00:48:25;;;;;;;8.93;4.05;;;22.50;99.90;;;;;;4994017;28;20045;-74
2023/07/10 00:51:42;;;;;;;9.25;4.13;;;22.50;99.90;;;;;;5020241;28;20038;-74
2023/07/10 00:54:33;;;;;;;6.90;3.92;;;22.50;99.90;;;;;;5000961;28;20072;-77
2023/07/10 00:57:33;;;;;;;11.82;4.60;;;22.50;99.90;;;;;;5029447;28;20037;-75
2023/07/10 01:00:21;;;;;;;6.55;3.78;;;22.40;99.90;;;;;;5004669;28;20064;-75
2023/07/10 01:03:12;;;;;;;8.23;4.63;;;22.40;99.90;;;;;;5000024;28;20107;-76
2023/07/10 01:06:02;;;;;;;8.98;3.92;;;22.40;99.90;;;;;;5025615;28;20041;-76
2023/07/10 01:09:03;;;;;;;7.20;4.55;;;22.40;99.90;;;;;;5014804;28;20928;-76
2023/07/10 01:11:49;;;;;;;9.00;3.83;;;22.40;99.90;;;;;;5035307;28;20029;-76
2023/07/10 01:14:35;;;;;;;8.45;3.90;;;22.30;99.90;;;;;;5047723;28;20041;-76
2023/07/10 01:17:21;;;;;;;4.70;3.55;;;22.30;99.90;;;;;;5011482;28;20041;-76
2023/07/10 01:20:31;;;;;;;12.02;4.57;;;22.30;99.90;;;;;;4996032;28;20120;-75
2023/07/10 01:23:17;;;;;;;7.78;4.78;;;22.30;99.90;;;;;;5001011;28;20041;-75
2023/07/10 01:26:06;;;;;;;9.95;4.20;;;22.30;99.90;;;;;;5031843;28;20096;-74
2023/07/10 01:28:52;;;;;;;10.63;4.40;;;22.30;99.90;;;;;;5033953;28;20786;-75
2023/07/10 01:31:39;;;;;;;8.13;4.38;;;22.30;99.90;;;;;;5025065;28;20041;-75
2023/07/10 01:34:45;;;;;;;6.90;4.00;;;22.30;99.90;;;;;;5013068;28;20447;-76
2023/07/10 01:37:31;;;;;;;8.40;4.47;;;22.20;99.90;;;;;;5034635;28;20103;-75
2023/07/10 01:40:20;;;;;;;8.77;4.43;;;22.30;99.90;;;;;;5007084;28;20046;-76
2023/07/10 01:43:08;;;;;;;9.18;4.60;;;22.30;99.90;;;;;;5001707;28;20084;-75
2023/07/10 01:45:54;;;;;;;5.97;4.23;;;22.20;99.90;;;;;;5000262;28;20508;-75
2023/07/10 01:48:39;;;;;;;10.95;5.00;;;22.30;99.90;;;;;;4985556;28;20280;-76
2023/07/10 01:51:25;;;;;;;8.32;4.80;;;22.30;99.90;;;;;;4991937;28;20048;-76
2023/07/10 01:54:13;;;;;;;11.73;4.47;;;22.20;99.90;;;;;;5043817;28;20398;-75
2023/07/10 01:56:59;;;;;;;7.40;4.82;;;22.20;99.90;;;;;;5015517;28;20128;-76
2023/07/10 01:59:45;;;;;;;12.55;5.28;;;22.10;99.90;;;;;;4983126;28;20069;-76
2023/07/10 02:02:31;;;;;;;12.43;4.82;;;22.10;99.90;;;;;;5019372;28;20505;-76
2023/07/10 02:05:17;;;;;;;7.43;4.57;;;22.00;99.90;;;;;;5013665;28;20068;-77
2023/07/10 02:08:03;;;;;;;11.38;4.90;;;22.10;99.90;;;;;;5001253;28;20037;-77
2023/07/10 02:10:49;;;;;;;14.32;5.07;;;22.10;99.90;;;;;;5002683;28;20044;-76
2023/07/10 02:13:36;;;;;;;8.70;5.07;;;22.00;99.90;;;;;;5009976;28;20378;-76
2023/07/10 02:16:22;;;;;;;8.13;4.53;;;21.90;99.90;;;;;;5008417;28;20045;-75
2023/07/10 02:19:09;;;;;;;10.27;5.03;;;21.90;99.90;;;;;;4993138;28;20068;-76
2023/07/10 02:21:55;;;;;;;10.15;5.53;;;21.90;99.90;;;;;;4994693;28;20676;-76
2023/07/10 02:24:41;;;;;;;11.25;5.43;;;21.90;99.90;;;;;;4982887;28;20049;-76
2023/07/10 02:27:27;;;;;;;9.48;4.97;;;21.70;99.90;;;;;;5025340;28;20041;-75
2023/07/10 02:30:13;;;;;;;8.75;5.07;;;21.50;99.90;;;;;;4998740;28;20553;-76
2023/07/10 02:32:59;;;;;;;9.02;5.55;;;21.50;99.90;;;;;;5003304;28;20815;-76
2023/07/10 02:35:46;;;;;;;7.78;4.82;;;21.30;99.90;;;;;;4994766;28;20049;-75
2023/07/10 02:38:32;;;;;;;8.70;4.80;;;21.10;99.90;;;;;;4981781;28;20046;-76
2023/07/10 02:41:18;;;;;;;11.55;5.03;;;21.40;99.90;;;;;;4999863;28;20100;-76
2023/07/10 02:44:07;;;;;;;7.97;5.07;;;21.50;99.90;;;;;;4997604;28;20501;-76
2023/07/10 02:46:53;;;;;;;9.25;5.47;;;21.60;99.90;;;;;;5016589;28;20780;-76
2023/07/10 02:49:39;;;;;;;10.30;5.18;;;21.60;99.90;;;;;;4990680;28;20080;-75
2023/07/10 02:52:25;;;;;;;9.93;5.10;;;21.60;99.90;;;;;;5014510;28;20072;-75
2023/07/10 02:55:11;;;;;;;9.77;5.60;;;21.70;99.90;;;;;;4987564;28;20069;-76
2023/07/10 02:57:57;;;;;;;12.00;5.65;;;21.60;99.90;;;;;;4974962;28;20048;-75
2023/07/10 03:00:43;;;;;;;7.45;4.80;;;21.50;99.90;;;;;;4994865;28;20502;-76
2023/07/10 03:03:29;;;;;;;10.60;5.53;;;21.70;99.90;;;;;;4983287;28;20049;-74
2023/07/10 03:06:15;;;;;;;9.20;5.72;;;21.70;99.90;;;;;;4995675;28;20774;-75
2023/07/10 03:09:01;;;;;;;7.03;4.85;;;21.80;99.90;;;;;;4982574;28;20047;-75
2023/07/10 03:11:47;;;;;;;9.07;5.22;;;21.80;99.90;;;;;;4987357;28;20063;-76
2023/07/10 03:14:33;;;;;;;8.63;5.22;;;21.80;99.90;;;;;;4998781;28;20038;-76
2023/07/10 03:17:19;;;;;;;10.82;5.50;;;21.80;99.90;;;;;;4993929;28;20037;-77
2023/07/10 03:20:05;;;;;;;10.80;6.00;;;21.80;99.90;;;;;;4993819;28;20037;-76
2023/07/10 03:22:51;;;;;;;11.70;6.32;;;21.80;99.90;;;;;;4978275;28;20050;-76
2023/07/10 03:25:37;;;;;;;9.40;5.28;;;21.80;99.90;;;;;;4999080;28;20038;-75
2023/07/10 03:28:23;;;;;;;9.18;5.22;;;21.80;99.90;;;;;;4990621;28;20046;-76
2023/07/10 03:31:09;;;;;;;10.32;5.78;;;21.80;99.90;;;;;;4977891;28;20044;-77
2023/07/10 03:33:55;;;;;;;7.60;5.50;;;21.80;99.90;;;;;;4990273;28;20045;-76
2023/07/10 03:36:41;;;;;;;12.05;5.72;;;21.80;99.90;;;;;;4995238;28;20462;-76
2023/07/10 03:39:27;;;;;;;8.40;5.63;;;21.80;99.90;;;;;;4976314;28;20046;-75
2023/07/10 03:42:13;;;;;;;9.98;5.80;;;21.80;99.90;;;;;;5002125;28;20156;-76
2023/07/10 03:44:59;;;;;;;10.77;5.30;;;21.80;99.90;;;;;;4998156;28;20038;-75
2023/07/10 03:47:45;;;;;;;9.77;5.38;;;21.80;99.90;;;;;;4966737;28;20100;-76
2023/07/10 03:50:34;;;;;;;10.32;5.15;;;21.80;99.90;;;;;;5012969;28;20437;-75
2023/07/10 03:53:20;;;;;;;9.07;5.53;;;21.80;99.90;;;;;;4974448;28;20033;-75
2023/07/10 03:56:06;;;;;;;10.73;5.72;;;21.80;99.90;;;;;;4973121;28;20042;-75
2023/07/10 03:58:52;;;;;;;10.93;6.03;;;21.80;99.90;;;;;;4979560;28;20049;-76
2023/07/10 04:01:39;;;;;;;12.43;5.88;;;21.80;99.90;;;;;;4972840;28;20126;-77
2023/07/10 04:04:25;;;;;;;10.00;5.80;;;21.80;99.90;;;;;;4971864;28;20471;-76
2023/07/10 04:07:10;;;;;;;12.63;6.28;;;21.80;99.90;;;;;;4991634;28;20060;-76
2023/07/10 04:09:56;;;;;;;10.02;5.45;;;21.80;99.90;;;;;;4993981;28;20042;-76
2023/07/10 04:12:44;;;;;;;10.63;5.53;;;21.80;99.90;;;;;;4993268;28;20049;-77
2023/07/10 04:15:30;;;;;;;;;;;21.80;99.90;;;;;;5011634;28;20038;-76
2023/07/10 04:18:16;;;;;;;12.85;6.82;;;21.80;99.90;;;;;;4987989;28;19971;-76
2023/07/10 04:21:04;;;;;;;10.65;6.40;;;21.70;99.90;;;;;;5003092;28;20124;-76
2023/07/10 04:23:50;;;;;;;11.18;6.57;;;21.70;99.90;;;;;;4972178;28;20050;-76
2023/07/10 04:26:36;;;;;;;10.68;6.25;;;21.70;99.90;;;;;;4985400;28;20081;-76
2023/07/10 04:29:22;;;;;;;11.07;6.13;;;21.80;99.90;;;;;;4997585;28;20516;-76
2023/07/10 04:32:08;;;;;;;10.70;6.38;;;21.70;99.90;;;;;;4979849;28;20052;-74
2023/07/10 04:34:57;;;;;;;8.52;5.63;;;21.80;99.90;;;;;;4993926;28;20162;-74
2023/07/10 04:37:43;;;;;;;9.10;6.10;;;21.80;99.90;;;;;;4974918;28;20103;-75
2023/07/10 04:40:29;;;;;;;10.88;5.95;;;21.80;99.90;;;;;;4959674;28;20093;-76
2023/07/10 04:43:15;;;;;;;8.65;5.90;;;21.80;99.90;;;;;;4998790;28;20073;-74
2023/07/10 04:46:03;;;;;;;10.23;5.85;;;21.80;99.90;;;;;;4960373;28;20437;-74
2023/07/10 04:48:49;;;;;;;8.77;6.20;;;21.80;99.90;;;;;;4973476;28;20034;-74
2023/07/10 04:51:35;;;;;;;18.00;6.70;;;21.90;99.90;;;;;;4999561;28;20034;-74
2023/07/10 04:54:21;;;;;;;10.00;6.35;;;21.80;99.90;;;;;;4989396;28;20038;-74
2023/07/10 04:57:07;;;;;;;12.18;6.85;;;21.80;99.90;;;;;;4988757;28;20037;-74
2023/07/10 04:59:53;;;;;;;9.95;6.53;;;21.80;99.90;;;;;;4980629;28;20057;-74
2023/07/10 05:02:39;;;;;;;11.02;6.38;;;21.80;99.90;;;;;;4979630;28;20426;-74
2023/07/10 05:05:24;;;;;;;12.85;6.43;;;21.80;99.90;;;;;;5000784;28;20124;-73
2023/07/10 05:08:10;;;;;;;11.63;6.75;;;21.80;99.90;;;;;;5006971;28;20467;-73
2023/07/10 05:10:56;;;;;;;11.68;6.43;;;21.60;99.90;;;;;;4985873;28;20113;-73
2023/07/10 05:13:42;;;;;;;12.73;6.53;;;21.40;99.90;;;;;;4986608;28;20103;-73
2023/07/10 05:16:29;;;;;;;11.25;5.65;;;21.50;99.90;;;;;;4992152;28;20054;-74
2023/07/10 05:19:15;;;;;;;14.77;7.05;;;21.30;99.90;;;;;;4985375;28;20041;-74
2023/07/10 05:22:01;;;;;;;9.20;6.07;;;21.30;99.90;;;;;;4990038;28;20043;-73
2023/07/10 05:24:47;;;;;;;12.93;6.55;;;21.40;99.90;;;;;;5020114;28;20041;-73
2023/07/10 05:27:35;;;;;;;13.20;6.82;;;21.20;99.90;;;;;;5002820;28;20046;-73
2023/07/10 05:30:21;;;;;;;12.55;6.82;;;21.10;99.90;;;;;;4996962;28;20038;-73
2023/07/10 05:33:07;;;;;;;12.20;6.25;;;21.20;99.90;;;;;;4999178;28;20070;-72
2023/07/10 05:35:57;;;;;;;10.90;5.68;;;21.30;99.90;;;;;;5002511;28;20037;-73
2023/07/10 05:38:48;;;;;;;10.50;6.32;;;21.40;99.90;;;;;;5010490;28;20030;-73
2023/07/10 05:41:35;;;;;;;13.48;6.40;;;21.50;99.90;;;;;;5002268;28;20347;-73
2023/07/10 05:44:21;;;;;;;16.35;7.05;;;21.40;99.90;;;;;;4994527;28;20044;-73
2023/07/10 05:47:07;;;;;;;9.73;5.82;;;21.40;99.90;;;;;;5010874;28;20050;-73
2023/07/10 05:49:53;;;;;;;16.48;6.10;;;21.60;99.90;;;;;;4994592;28;20030;-73
2023/07/10 05:52:39;;;;;;;13.40;7.40;;;21.60;99.90;;;;;;4988247;28;20038;-72
2023/07/10 05:55:25;;;;;;;11.77;6.82;;;21.30;99.90;;;;;;5005967;28;20049;-73
2023/07/10 05:58:11;;;;;;;12.00;7.03;;;21.30;99.90;;;;;;4998101;28;20060;-73
2023/07/10 06:00:59;;;;;;;13.23;7.35;;;21.30;99.90;;;;;;5005777;28;20183;-75
2023/07/10 06:03:45;;;;;;;17.27;10.40;;;21.30;99.90;;;;;;4997374;28;20038;-74
2023/07/10 06:06:31;;;;;;;16.25;10.88;;;21.40;99.90;;;;;;5001572;28;20325;-73
2023/07/10 06:09:17;;;;;;;17.42;11.90;;;21.20;99.90;;;;;;4996789;28;20041;-73
2023/07/10 06:12:05;;;;;;;20.80;12.60;;;21.20;99.90;;;;;;4979689;28;20038;-74
2023/07/10 06:14:51;;;;;;;19.75;11.32;;;21.10;99.90;;;;;;4983043;28;20157;-74
2023/07/10 06:17:37;;;;;;;20.13;11.13;;;21.00;99.90;;;;;;4990564;28;20563;-74
2023/07/10 06:20:22;;;;;;;17.45;11.95;;;21.00;99.90;;;;;;4989562;28;20082;-74
2023/07/10 06:23:08;;;;;;;22.92;13.32;;;21.00;99.90;;;;;;4996107;28;20078;-74
2023/07/10 06:25:57;;;;;;;16.58;13.70;;;21.00;99.90;;;;;;4964228;28;20046;-74
2023/07/10 06:28:43;;;;;;;20.27;13.57;;;20.90;99.90;;;;;;5003708;28;20103;-74
2023/07/10 06:31:29;;;;;;;18.35;12.25;;;20.90;99.90;;;;;;4986598;28;20042;-74
2023/07/10 06:34:15;;;;;;;22.85;12.93;;;20.90;99.90;;;;;;4973077;28;20045;-74
2023/07/10 06:37:01;;;;;;;18.55;11.98;;;20.80;99.90;;;;;;5005470;28;20045;-74
2023/07/10 06:40:09;;;;;;;19.15;12.65;;;20.90;99.90;;;;;;5005745;28;20037;-73
2023/07/10 06:42:55;;;;;;;18.85;11.70;;;21.00;99.90;;;;;;4988267;28;20072;-75
2023/07/10 06:45:43;;;;;;;20.38;11.68;;;20.90;99.90;;;;;;4992619;28;20100;-75
2023/07/10 06:48:28;;;;;;;;;;;21.00;99.90;;;;;;5001091;28;20037;-75
2023/07/10 06:51:16;;;;;;;16.10;12.48;;;20.90;99.90;;;;;;5016629;28;19939;-75
2023/07/10 06:54:03;;;;;;;16.55;11.80;;;20.90;99.90;;;;;;4996724;28;20034;-75
2023/07/10 06:56:49;;;;;;;16.10;11.18;;;20.90;99.90;;;;;;4976469;28;20486;-75
2023/07/10 06:59:34;;;;;;;17.13;13.57;;;20.90;99.90;;;;;;4997036;28;20065;-75
2023/07/10 07:02:20;;;;;;;19.00;13.07;;;20.80;99.90;;;;;;4994655;28;20046;-76
2023/07/10 07:05:07;;;;;;;22.67;16.33;;;20.90;99.90;;;;;;4972809;28;20073;-75
2023/07/10 07:07:53;;;;;;;20.10;16.83;;;20.80;99.90;;;;;;4981803;28;20041;-75
2023/07/10 07:10:43;;;;;;;22.38;16.77;;;20.70;99.90;;;;;;4993032;28;20496;-75
2023/07/10 07:13:29;;;;;;;25.08;18.65;;;20.70;99.90;;;;;;4968097;28;20077;-74
2023/07/10 07:16:15;;;;;;;27.27;18.80;;;20.60;99.90;;;;;;4987849;28;20057;-78
2023/07/10 07:19:01;;;;;;;22.92;17.00;;;20.50;99.90;;;;;;4975654;28;20053;-78
2023/07/10 07:21:47;;;;;;;22.02;17.27;;;20.50;99.90;;;;;;4955083;28;20414;-79
2023/07/10 07:24:33;;;;;;;25.30;18.27;;;20.60;99.90;;;;;;4974684;28;20038;-79
2023/07/10 07:27:20;;;;;;;21.63;17.17;;;20.50;99.90;;;;;;4956618;28;20064;-78
2023/07/10 07:30:07;;;;;;;24.05;19.90;;;20.60;99.90;;;;;;4995060;28;20046;-78
2023/07/10 07:32:53;;;;;;;26.67;20.83;;;20.50;99.90;;;;;;4992309;28;20049;-79
2023/07/10 07:35:39;;;;;;;27.13;20.35;;;20.40;99.90;;;;;;4975166;28;20650;-75
2023/07/10 07:38:26;;;;;;;26.25;19.92;;;20.30;99.90;;;;;;4972631;28;20038;-75
2023/07/10 07:41:12;;;;;;;26.10;18.17;;;20.20;99.90;;;;;;4979574;28;20045;-75
2023/07/10 07:43:59;;;;;;;27.20;19.33;;;20.30;99.90;;;;;;4976423;28;20128;-74
2023/07/10 07:46:46;;;;;;;23.60;17.42;;;20.20;99.90;;;;;;4962467;28;20050;-75
2023/07/10 07:49:33;;;;;;;23.73;17.92;;;20.10;99.90;;;;;;4976244;28;20049;-75
2023/07/10 07:52:21;;;;;;;26.15;18.95;;;20.10;99.90;;;;;;4962329;28;20038;-75
2023/07/10 07:55:07;;;;;;;22.35;16.60;;;20.00;99.90;;;;;;4965092;28;20041;-75
2023/07/10 07:57:55;;;;;;;21.42;16.60;;;20.10;99.90;;;;;;4979133;28;20042;-75
2023/07/10 08:00:41;;;;;;;24.08;16.92;;;20.30;99.90;;;;;;5001614;28;20494;-76
2023/07/10 08:03:27;;;;;;;20.08;14.45;;;20.40;99.90;;;;;;4961358;28;20482;-76
2023/07/10 08:06:13;;;;;;;22.33;15.65;;;20.60;99.90;;;;;;4988967;28;20138;-76
2023/07/10 08:09:00;;;;;;;17.80;14.80;;;20.50;99.90;;;;;;4980044;28;20101;-76
2023/07/10 08:11:46;;;;;;;24.98;18.20;;;20.80;99.90;;;;;;4987341;28;20486;-76
2023/07/10 08:14:32;;;;;;;23.05;17.70;;;20.50;99.90;;;;;;4981892;28;20099;-75
2023/07/10 08:17:18;;;;;;;26.50;19.60;;;20.50;99.90;;;;;;4980937;28;20107;-75
2023/07/10 08:20:07;;;;;;;27.88;20.80;;;20.40;99.90;;;;;;4971834;28;20045;-74
2023/07/10 08:22:55;;;;;;;24.80;18.77;;;20.20;99.90;;;;;;4982000;28;20453;-75
2023/07/10 08:25:41;;;;;;;29.73;19.33;;;20.10;99.90;;;;;;4981387;28;20048;-75
2023/07/10 08:28:27;;;;;;;29.15;19.80;;;20.10;99.90;;;;;;4981939;28;20413;-75
2023/07/10 08:31:15;;;;;;;25.98;18.88;;;20.10;99.90;;;;;;4994445;28;20486;-75
2023/07/10 08:34:01;;;;;;;24.70;19.67;;;20.30;99.90;;;;;;4966549;28;20046;-75
2023/07/10 08:36:46;;;;;;;27.25;19.10;;;20.20;99.90;;;;;;4979350;28;20053;-75
2023/07/10 08:39:32;;;;;;;26.45;17.88;;;20.30;99.90;;;;;;5001894;28;20064;-76
2023/07/10 08:42:20;;;;;;;25.83;19.30;;;20.30;99.90;;;;;;5002199;28;20042;-75
2023/07/10 08:45:11;;;;;;;26.20;19.00;;;20.30;99.90;;;;;;4992446;28;20079;-76
2023/07/10 08:48:17;;;;;;;25.65;17.20;;;20.30;99.90;;;;;;4984962;28;20459;-75
2023/07/10 08:51:19;;;;;;;21.15;16.00;;;20.40;99.90;;;;;;4973233;28;20038;-75
2023/07/10 08:54:07;;;;;;;26.90;17.40;;;20.30;99.90;;;;;;4996499;28;20121;-75
2023/07/10 08:57:28;;;;;;;23.05;18.02;;;20.30;99.90;;;;;;4971226;28;20053;-75
2023/07/10 09:00:15;;;;;;;25.15;17.27;;;20.30;99.90;;;;;;4998604;28;20055;-76
2023/07/10 09:03:19;;;;;;;25.60;17.88;;;20.30;99.90;;;;;;5019583;28;20056;-75
2023/07/10 09:06:05;;;;;;;25.60;18.83;;;20.30;99.90;;;;;;5017290;28;20140;-74
2023/07/10 09:08:52;;;;;;;19.50;16.85;;;20.30;99.90;;;;;;5003842;28;20049;-76
2023/07/10 09:11:38;;;;;;;27.05;19.73;;;20.50;99.90;;;;;;4997446;28;20091;-76
2023/07/10 09:14:46;;;;;;;25.67;19.30;;;20.70;99.90;;;;;;5012043;28;20048;-76
2023/07/10 09:17:50;;;;;;;21.98;16.83;;;20.50;99.90;;;;;;5025468;28;20037;-77
2023/07/10 09:20:36;;;;;;;20.58;16.10;;;20.80;99.90;;;;;;5029350;28;20095;-76
2023/07/10 09:23:24;;;;;;;24.17;19.60;;;20.90;99.90;;;;;;4995915;28;20053;-76
2023/07/10 09:26:12;;;;;;;24.25;18.55;;;20.70;99.90;;;;;;4996932;28;20045;-75
2023/07/10 09:29:11;;;;;;;24.90;20.73;;;20.40;99.90;;;;;;4991832;28;20037;-75
2023/07/10 09:32:14;;;;;;;22.92;18.80;;;20.20;99.90;;;;;;5011612;28;20041;-75
2023/07/10 09:35:00;;;;;;;23.42;19.15;;;20.30;99.90;;;;;;5001294;28;20044;-75
2023/07/10 09:37:49;;;;;;;23.20;20.05;;;20.20;99.90;;;;;;4993693;28;20049;-76
2023/07/10 09:40:49;;;;;;;25.83;18.65;;;20.20;99.90;;;;;;5005583;28;20037;-75
2023/07/10 09:43:36;;;;;;;25.73;20.42;;;20.20;99.90;;;;;;5021081;28;20043;-75
2023/07/10 09:46:35;;;;;;;21.30;17.83;;;20.10;99.90;;;;;;5002906;28;20073;-75
2023/07/10 09:49:22;;;;;;;22.70;19.23;;;20.10;99.90;;;;;;5018831;28;20105;-75
2023/07/10 09:52:20;;;;;;;25.40;19.47;;;20.10;99.90;;;;;;4982806;28;20037;-75
2023/07/10 09:55:16;;;;;;;24.13;19.00;;;20.10;99.90;;;;;;5000809;28;20148;-75
2023/07/10 09:58:02;;;;;;;22.52;18.20;;;20.20;99.90;;;;;;4983667;28;20530;-75
2023/07/10 10:00:48;;;;;;;21.50;16.30;;;20.30;99.90;;;;;;4966526;28;20078;-74
2023/07/10 10:03:39;;;;;;;18.98;14.80;;;20.30;99.90;;;;;;5004491;28;20084;-75
2023/07/10 10:06:27;;;;;;;17.30;15.18;;;20.30;99.90;;;;;;4998682;28;20053;-76
2023/07/10 10:09:23;;;;;;;;;;;20.40;99.90;;;;;;5006717;28;20034;-75
2023/07/10 10:12:27;;;;;;;18.30;14.30;;;20.50;99.90;;;;;;5003379;28;19936;-76
2023/07/10 10:15:47;;;;;;;18.50;14.27;;;20.50;99.90;;;;;;4989432;28;20041;-76
2023/07/10 10:18:53;;;;;;;18.42;14.45;;;20.40;99.90;;;;;;4978490;28;20053;-75
2023/07/10 10:21:58;;;;;;;15.30;13.48;;;20.40;99.90;;;;;;5010967;28;20478;-76
2023/07/10 10:24:44;;;;;;;16.05;13.00;;;20.60;99.90;;;;;;4976169;28;20045;-76
2023/07/10 10:27:39;;;;;;;13.35;11.55;;;20.70;99.90;;;;;;4976435;28;20157;-75
2023/07/10 10:30:41;;;;;;;14.38;11.63;;;20.80;99.90;;;;;;4964189;28;20029;-76
2023/07/10 10:33:47;;;;;;;15.35;10.80;;;20.90;99.90;;;;;;4993505;28;20050;-75
2023/07/10 10:36:36;;;;;;;15.98;11.75;;;21.00;99.90;;;;;;4983082;28;20387;-76
2023/07/10 10:39:38;;;;;;;13.88;9.98;;;21.10;99.90;;;;;;4986047;28;20164;-75
2023/07/10 10:42:32;;;;;;;12.10;8.77;;;21.30;99.90;;;;;;4973001;28;20046;-76
2023/07/10 10:45:31;;;;;;;11.30;8.48;;;21.50;99.90;;;;;;4980297;28;20387;-75
2023/07/10 10:48:56;;;;;;;10.57;8.18;;;21.50;99.90;;;;;;4993645;28;20093;-76
2023/07/10 10:52:21;;;;;;;9.85;8.00;;;21.60;99.90;;;;;;4985430;28;20107;-76
2023/07/10 10:55:32;;;;;;;11.32;6.70;;;21.80;99.90;;;;;;4957341;28;20034;-75
2023/07/10 10:58:40;;;;;;;9.77;7.03;;;21.70;99.90;;;;;;5001021;28;20042;-76
2023/07/10 11:01:37;;;;;;;9.48;6.72;;;21.90;99.90;;;;;;4992369;28;20045;-76
2023/07/10 11:04:43;;;;;;;11.40;7.17;;;22.00;99.90;;;;;;4976184;28;20125;-76
2023/07/10 11:07:29;;;;;;;9.77;6.40;;;21.90;99.90;;;;;;4996721;28;20458;-76
2023/07/10 11:10:28;;;;;;;9.38;5.97;;;22.00;99.90;;;;;;4989068;28;20042;-76
2023/07/10 11:13:25;;;;;;;9.35;6.38;;;22.30;99.90;;;;;;4995552;28;20042;-77
2023/07/10 11:16:11;;;;;;;13.82;5.65;;;22.40;99.90;;;;;;4980841;28;20052;-76
2023/07/10 11:18:58;;;;;;;8.13;5.60;;;22.50;99.90;;;;;;4969586;28;20045;-76
2023/07/10 11:21:44;;;;;;;6.85;5.00;;;22.40;99.90;;;;;;4983467;28;20363;-75
2023/07/10 11:24:33;;;;;;;8.30;5.35;;;22.40;99.90;;;;;;4972671;28;20341;-76
2023/07/10 11:27:23;;;;;;;9.23;6.07;;;22.30;99.90;;;;;;4995989;28;20371;-76
2023/07/10 11:30:11;;;;;;;8.95;5.68;;;22.40;99.90;;;;;;4979597;28;20041;-75
2023/07/10 11:33:04;;;;;;;13.43;5.65;;;22.40;99.90;;;;;;4970129;28;20065;-75
2023/07/10 11:36:34;;;;;;;8.15;5.43;;;22.30;99.90;;;;;;4979944;28;20038;-77
2023/07/10 11:39:34;;;;;;;7.40;5.15;;;22.30;99.90;;;;;;4988918;28;20044;-74
2023/07/10 11:42:20;;;;;;;8.55;5.28;;;22.30;99.90;;;;;;4977980;28;20544;-74
2023/07/10 11:45:06;;;;;;;11.57;5.10;;;22.40;99.90;;;;;;5009233;28;20048;-74
2023/07/10 11:47:52;;;;;;;12.15;5.15;;;22.40;99.90;;;;;;4988317;28;20046;-73
2023/07/10 11:50:38;;;;;;;10.45;5.05;;;22.80;99.90;;;;;;5002865;28;20046;-74
2023/07/10 11:53:24;;;;;;;7.43;4.32;;;22.90;99.90;;;;;;4990838;28;20029;-74
2023/07/10 11:56:13;;;;;;;7.32;3.90;;;23.10;99.90;;;;;;4979523;28;20104;-74
2023/07/10 11:58:59;;;;;;;9.10;4.60;;;23.00;99.90;;;;;;4982391;28;20121;-74
2023/07/10 12:01:45;;;;;;;8.57;4.15;;;23.00;99.90;;;;;;4978176;28;20056;-74
2023/07/10 12:04:31;;;;;;;8.00;4.57;;;23.00;99.90;;;;;;4973949;28;20070;-74
2023/07/10 12:07:17;;;;;;;6.97;4.10;;;22.80;99.90;;;;;;4973330;28;20465;-74
2023/07/10 12:10:04;;;;;;;8.77;4.20;;;22.80;99.90;;;;;;5009420;28;20048;-73
2023/07/10 12:12:50;;;;;;;6.05;3.67;;;22.80;99.90;;;;;;4977693;28;20034;-78
2023/07/10 12:15:36;;;;;;;7.60;3.90;;;22.80;99.90;;;;;;4973297;28;20037;-74
2023/07/10 12:18:25;;;;;;;5.80;3.00;;;22.90;99.90;;;;;;4974605;28;20382;-74
2023/07/10 12:21:13;;;;;;;6.90;3.30;;;23.20;99.90;;;;;;4983062;28;20073;-74
2023/07/10 12:24:02;;;;;;;;;;;23.30;99.90;;;;;;4977873;28;20099;-74
2023/07/10 12:26:53;;;;;;;7.10;3.10;;;23.30;99.90;;;;;;4991424;28;19918;-73
2023/07/10 12:29:48;;;;;;;5.53;2.70;;;23.60;99.90;;;;;;4983441;28;20037;-74
2023/07/10 12:32:34;;;;;;;5.65;3.10;;;23.90;99.90;;;;;;4996320;28;20034;-76
2023/07/10 12:35:31;;;;;;;7.03;3.72;;;23.90;99.90;;;;;;5009331;28;20069;-76
2023/07/10 12:38:17;;;;;;;5.55;3.20;;;23.90;99.90;;;;;;4999774;28;20053;-76
2023/07/10 12:41:04;;;;;;;5.50;3.20;;;23.70;99.90;;;;;;4987764;28;20108;-77
2023/07/10 12:43:57;;;;;;;7.47;3.35;;;23.50;99.90;;;;;;4983913;28;20061;-76
2023/07/10 12:46:43;;;;;;;5.63;2.72;;;23.60;99.90;;;;;;4992326;28;20462;-76
2023/07/10 12:49:31;;;;;;;7.13;2.70;;;23.90;99.90;;;;;;4995923;28;20042;-75
2023/07/10 12:52:16;;;;;;;;;;;24.30;99.90;;;;;;4999234;28;20179;-76
2023/07/10 12:55:04;;;;;;;5.35;2.88;;;24.10;99.30;;;;;;4983498;28;20012;-76
2023/07/10 12:57:51;;;;;;;4.28;3.05;;;24.30;99.60;;;;;;5011213;28;20116;-76
2023/07/10 13:00:45;;;;;;;7.03;3.05;;;24.40;99.10;;;;;;5007429;28;20410;-76
2023/07/10 13:03:32;;;;;;;6.05;3.08;;;24.10;99.50;;;;;;4986068;28;20128;-76
2023/07/10 13:06:18;;;;;;;7.05;2.80;;;24.00;99.20;;;;;;4983689;28;20045;-77
2023/07/10 13:09:05;;;;;;;5.07;2.90;;;23.90;99.60;;;;;;4993585;28;20359;-76
2023/07/10 13:11:51;;;;;;;5.37;3.03;;;24.00;99.60;;;;;;4980374;28;20041;-76
2023/07/10 13:14:39;;;;;;;5.32;2.83;;;23.90;99.70;;;;;;4978348;28;20038;-77
2023/07/10 13:17:25;;;;;;;3.27;2.40;;;24.10;99.90;;;;;;4965694;28;20053;-77
2023/07/10 13:20:26;;;;;;;7.35;2.90;;;24.50;99.70;;;;;;5014134;28;20069;-77
2023/07/10 13:23:12;;;;;;;5.95;2.78;;;24.70;98.40;;;;;;4980415;28;20045;-76
2023/07/10 13:25:58;;;;;;;8.82;3.03;;;24.50;98.20;;;;;;4961101;28;20045;-76
2023/07/10 13:28:44;;;;;;;6.72;2.47;;;24.80;98.80;;;;;;5008083;28;20034;-76
2023/07/10 13:31:31;;;;;;;5.18;2.70;;;24.90;97.00;;;;;;4974177;28;20092;-76
2023/07/10 13:34:17;;;;;;;4.27;2.60;;;24.70;96.70;;;;;;4972526;28;20780;-76
2023/07/10 13:37:03;;;;;;;6.47;2.60;;;24.80;96.80;;;;;;5005895;28;20129;-76
2023/07/10 13:39:50;;;;;;;3.42;2.10;;;24.90;96.60;;;;;;5003848;28;20469;-77
2023/07/10 13:43:21;;;;;;;7.03;2.20;;;24.80;96.60;;;;;;4981681;28;20125;-76
2023/07/10 13:46:21;;;;;;;4.68;2.40;;;25.00;96.20;;;;;;4996991;28;20049;-77
2023/07/10 13:49:13;;;;;;;6.22;2.85;;;25.40;96.70;;;;;;4970180;28;20046;-77
2023/07/10 13:52:24;;;;;;;4.72;2.65;;;25.00;96.70;;;;;;4984159;28;20053;-77
2023/07/10 13:55:12;;;;;;;10.65;2.50;;;24.70;96.70;;;;;;4988790;28;20037;-76
2023/07/10 13:58:17;;;;;;;7.60;2.80;;;24.50;96.50;;;;;;5010550;28;20052;-75
2023/07/10 14:01:18;;;;;;;4.72;2.33;;;24.70;96.20;;;;;;5026207;28;20092;-77
2023/07/10 14:04:39;;;;;;;3.67;2.22;;;24.60;96.30;;;;;;5013528;28;20043;-76
2023/07/10 14:07:28;;;;;;;5.10;2.47;;;24.70;95.40;;;;;;5024501;28;20045;-77
2023/07/10 14:10:21;;;;;;;5.43;2.20;;;24.70;95.50;;;;;;4989156;28;20073;-76
2023/07/10 14:13:15;;;;;;;5.65;2.20;;;24.90;95.20;;;;;;4966037;28;20042;-76
2023/07/10 14:16:12;;;;;;;6.30;2.58;;;24.90;95.20;;;;;;4995322;28;20042;-75
2023/07/10 14:19:04;;;;;;;6.35;2.45;;;25.10;94.50;;;;;;4994740;28;20045;-75
2023/07/10 14:21:55;;;;;;;6.85;2.40;;;25.20;94.50;;;;;;4977189;28;20499;-76
2023/07/10 14:25:01;;;;;;;5.93;2.40;;;25.20;95.30;;;;;;4991407;28;20203;-77
2023/07/10 14:27:50;;;;;;;5.85;2.47;;;24.80;94.60;;;;;;5017307;28;20045;-75
2023/07/10 14:30:41;;;;;;;6.07;2.63;;;24.60;95.10;;;;;;4984646;28;20033;-76
2023/07/10 14:33:32;;;;;;;5.40;2.13;;;24.70;95.00;;;;;;5001488;28;20042;-76
2023/07/10 14:36:42;;;;;;;7.57;2.30;;;25.00;94.70;;;;;;4970447;28;20045;-76